createdAt,value
2018-03-20T00:01:04.216Z,30.17
2018-03-20T00:03:32.746Z,30.63
2018-03-20T00:06:00.382Z,30.30
2018-03-20T00:08:27.938Z,30.20
2018-03-20T00:10:57.397Z,29.57
2018-03-20T00:13:24.925Z,30.77
2018-03-20T00:15:52.436Z,30.57
2018-03-20T00:18:20.910Z,31.53
2018-03-20T00:20:48.524Z,28.90
2018-03-20T00:23:16.084Z,30.07
2018-03-20T00:25:44.248Z,31.10
2018-03-20T00:28:11.758Z,32.23
2018-03-20T00:30:40.987Z,31.83
2018-03-20T00:33:08.509Z,30.87
2018-03-20T00:35:36.139Z,30.70
2018-03-20T00:38:03.686Z,31.97
2018-03-20T00:40:31.253Z,32.07
2018-03-20T00:45:59.089Z,30.90
2018-03-20T00:48:29.282Z,31.47
2018-03-20T00:50:56.906Z,31.60
2018-03-20T00:53:24.479Z,32.23
2018-03-20T00:55:52.066Z,31.77
2018-03-20T00:58:19.665Z,32.97
2018-03-20T01:00:47.963Z,33.20
2018-03-20T01:03:16.263Z,34.13
2018-03-20T01:05:43.806Z,30.20
2018-03-20T01:08:12.669Z,31.43
2018-03-20T01:10:41.172Z,30.80
2018-03-20T01:13:10.392Z,31.30
2018-03-20T01:15:38.702Z,31.20
2018-03-20T01:18:06.227Z,30.87
2018-03-20T01:20:33.832Z,33.03
2018-03-20T01:23:02.324Z,32.40
2018-03-20T01:25:29.943Z,32.37
2018-03-20T01:27:57.556Z,31.93
2018-03-20T01:30:25.146Z,31.87
2018-03-20T01:33:12.344Z,34.47
2018-03-20T01:38:40.284Z,32.00
2018-03-20T01:41:09.600Z,32.73
2018-03-20T01:43:37.116Z,33.77
2018-03-20T01:46:04.613Z,33.70
2018-03-20T01:48:32.269Z,31.60
2018-03-20T01:51:00.652Z,32.37
2018-03-20T01:53:28.983Z,33.17
2018-03-20T01:55:56.548Z,32.47
2018-03-20T01:58:24.065Z,32.53
2018-03-20T02:00:52.401Z,31.53
2018-03-20T02:03:19.990Z,32.67
2018-03-20T02:05:47.530Z,31.63
2018-03-20T02:08:15.084Z,31.87
2018-03-20T02:10:42.683Z,35.23
2018-03-20T02:13:10.263Z,33.03
2018-03-20T02:15:38.570Z,31.87
2018-03-20T02:18:06.150Z,33.73
2018-03-20T02:20:33.771Z,33.40
2018-03-20T02:23:01.387Z,33.13
2018-03-20T02:25:28.901Z,33.53
2018-03-20T02:27:56.514Z,32.23
2018-03-20T02:30:24.908Z,33.47
2018-03-20T02:32:52.493Z,33.60
2018-03-20T02:35:20.943Z,33.20
2018-03-20T02:37:48.554Z,32.10
2018-03-20T02:40:18.044Z,33.87
2018-03-20T02:42:46.174Z,33.77
2018-03-20T02:45:14.606Z,33.93
2018-03-20T02:47:42.190Z,32.60
2018-03-20T02:50:09.812Z,34.17
2018-03-20T02:52:37.318Z,31.23
2018-03-20T02:55:04.950Z,31.77
2018-03-20T02:57:32.611Z,33.30
2018-03-20T03:00:00.130Z,31.00
2018-03-20T03:02:28.417Z,31.40
2018-03-20T03:04:56.718Z,30.67
2018-03-20T03:07:24.305Z,30.47
2018-03-20T03:09:51.887Z,30.70
2018-03-20T03:12:19.450Z,32.60
2018-03-20T03:14:47.033Z,30.40
2018-03-20T03:17:14.585Z,32.10
2018-03-20T03:19:42.162Z,30.63
2018-03-20T03:22:09.802Z,31.17
2018-03-20T03:24:37.603Z,33.33
2018-03-20T03:27:05.145Z,32.53
2018-03-20T03:29:32.661Z,31.83
2018-03-20T03:32:00.973Z,29.10
2018-03-20T03:34:28.563Z,28.37
2018-03-20T03:36:57.919Z,28.87
2018-03-20T03:39:25.492Z,31.10
2018-03-20T03:41:53.141Z,31.53
2018-03-20T03:44:21.530Z,32.07
2018-03-20T03:46:49.096Z,29.67
2018-03-20T03:49:16.695Z,30.63
2018-03-20T03:51:44.341Z,29.83
2018-03-20T03:54:11.891Z,30.80
2018-03-20T03:56:40.207Z,31.63
2018-03-20T03:59:07.770Z,30.63
2018-03-20T04:01:35.400Z,33.13
2018-03-20T04:04:02.906Z,30.63
2018-03-20T04:06:30.434Z,31.67
2018-03-20T04:08:58.064Z,31.03
2018-03-20T04:11:25.663Z,29.33
2018-03-20T04:13:53.340Z,33.20
2018-03-20T04:16:20.909Z,30.67
2018-03-20T04:18:49.409Z,30.77
2018-03-20T04:21:17.494Z,31.10
2018-03-20T04:23:45.086Z,30.17
2018-03-20T04:26:13.578Z,29.27
2018-03-20T04:28:41.256Z,29.47
2018-03-20T04:31:09.587Z,27.50
2018-03-20T04:33:37.125Z,27.90
2018-03-20T04:36:04.661Z,30.40
2018-03-20T04:38:33.035Z,28.13
2018-03-20T04:41:00.682Z,27.47
2018-03-20T04:43:28.216Z,27.97
2018-03-20T04:45:55.833Z,25.03
2018-03-20T04:48:23.360Z,25.83
2018-03-20T04:50:50.931Z,26.73
2018-03-20T04:53:18.464Z,25.77
2018-03-20T04:55:47.015Z,26.57
2018-03-20T04:58:14.608Z,26.33
2018-03-20T05:00:42.195Z,28.37
2018-03-20T05:03:09.730Z,27.47
2018-03-20T05:05:38.219Z,26.93
2018-03-20T05:08:06.530Z,26.70
2018-03-20T05:10:34.069Z,26.43
2018-03-20T05:13:01.661Z,25.03
2018-03-20T05:15:30.125Z,25.77
2018-03-20T05:17:58.467Z,27.03
2018-03-20T05:20:32.375Z,26.27
2018-03-20T05:23:05.690Z,24.00
2018-03-20T05:25:34.174Z,23.73
2018-03-20T05:28:01.731Z,24.07
2018-03-20T05:30:29.397Z,23.83
2018-03-20T05:32:56.911Z,24.63
2018-03-20T05:35:25.254Z,23.67
2018-03-20T05:37:53.528Z,21.50
2018-03-20T05:40:21.927Z,22.50
2018-03-20T05:42:50.220Z,21.93
2018-03-20T05:45:17.813Z,22.10
2018-03-20T05:47:51.166Z,21.27
2018-03-20T05:50:25.224Z,21.03
2018-03-20T05:52:52.760Z,19.63
2018-03-20T05:55:20.276Z,21.33
2018-03-20T05:57:47.860Z,21.10
2018-03-20T06:00:15.423Z,18.80
2018-03-20T06:02:43.621Z,21.57
2018-03-20T06:05:11.915Z,20.17
2018-03-20T06:07:40.995Z,17.13
2018-03-20T06:10:08.524Z,16.43
2018-03-20T06:12:36.108Z,16.43
2018-03-20T06:15:05.662Z,18.10
2018-03-20T06:17:33.218Z,16.97
2018-03-20T06:20:00.729Z,15.90
2018-03-20T06:22:29.255Z,16.10
2018-03-20T06:24:56.766Z,15.47
2018-03-20T06:27:24.298Z,16.70
2018-03-20T06:29:51.840Z,15.70
2018-03-20T06:32:20.144Z,15.53
2018-03-20T06:34:47.736Z,15.23
2018-03-20T06:37:15.253Z,14.63
2018-03-20T06:39:42.785Z,12.80
2018-03-20T06:45:13.418Z,12.13
2018-03-20T06:47:41.024Z,11.63
2018-03-20T06:50:09.402Z,12.43
2018-03-20T06:52:38.788Z,12.63
2018-03-20T06:55:06.432Z,11.40
2018-03-20T06:57:34.053Z,12.00
2018-03-20T07:00:01.572Z,12.03
2018-03-20T07:02:29.175Z,11.27
2018-03-20T07:04:58.437Z,11.90
2018-03-20T07:07:26.024Z,10.73
2018-03-20T07:09:53.605Z,11.10
2018-03-20T07:15:20.958Z,10.77
2018-03-20T07:17:48.523Z,10.07
2018-03-20T07:20:16.065Z,11.57
2018-03-20T07:22:44.535Z,11.07
2018-03-20T07:25:12.098Z,11.67
2018-03-20T07:27:40.525Z,11.57
2018-03-20T07:30:08.856Z,11.23
2018-03-20T07:32:36.402Z,11.20
2018-03-20T07:35:04.360Z,12.47
2018-03-20T07:37:32.625Z,13.83
2018-03-20T07:40:00.901Z,13.13
2018-03-20T07:42:28.487Z,12.30
2018-03-20T07:44:57.717Z,11.93
2018-03-20T07:47:25.328Z,10.70
2018-03-20T07:49:52.864Z,11.60
2018-03-20T07:52:20.388Z,11.27
2018-03-20T07:54:48.840Z,11.07
2018-03-20T07:57:16.478Z,10.57
2018-03-20T07:59:44.079Z,12.07
2018-03-20T08:02:11.599Z,11.50
2018-03-20T08:04:39.273Z,11.77
2018-03-20T08:07:07.757Z,12.03
2018-03-20T08:09:35.891Z,11.17
2018-03-20T08:12:03.419Z,11.67
2018-03-20T08:14:30.915Z,12.80
2018-03-20T08:17:01.147Z,12.53
2018-03-20T08:19:28.795Z,11.80
2018-03-20T08:21:56.389Z,12.40
2018-03-20T08:24:23.963Z,11.77
2018-03-20T08:26:52.487Z,12.03
2018-03-20T08:29:21.062Z,12.63
2018-03-20T08:31:48.645Z,11.43
2018-03-20T08:34:16.279Z,12.67
2018-03-20T08:36:44.620Z,12.13
2018-03-20T08:39:12.986Z,12.60
2018-03-20T08:41:41.445Z,12.10
2018-03-20T08:44:08.966Z,12.37
2018-03-20T08:46:37.567Z,11.90
2018-03-20T08:49:05.133Z,12.53
2018-03-20T08:51:33.351Z,12.10
2018-03-20T08:54:00.974Z,12.57
2018-03-20T08:56:28.596Z,12.93
2018-03-20T08:58:57.071Z,12.37
2018-03-20T09:01:24.660Z,11.30
2018-03-20T09:03:52.946Z,12.87
2018-03-20T09:06:21.286Z,12.33
2018-03-20T09:08:48.861Z,12.43
2018-03-20T09:11:16.429Z,11.60
2018-03-20T09:13:43.991Z,11.47
2018-03-20T09:16:11.546Z,11.90
2018-03-20T09:18:40.917Z,10.97
2018-03-20T09:21:08.460Z,10.97
2018-03-20T09:23:37.708Z,10.87
2018-03-20T09:26:05.208Z,10.07
2018-03-20T09:28:32.875Z,10.77
2018-03-20T09:31:00.433Z,11.20
2018-03-20T09:33:28.021Z,10.73
2018-03-20T09:35:58.236Z,9.40
2018-03-20T09:38:25.794Z,10.33
2018-03-20T09:40:53.407Z,11.37
2018-03-20T09:43:21.020Z,11.73
2018-03-20T09:45:48.664Z,11.67
2018-03-20T09:48:16.231Z,12.10
2018-03-20T09:50:43.790Z,12.00
2018-03-20T09:53:12.417Z,12.20
2018-03-20T09:55:40.700Z,12.40
2018-03-20T09:58:08.226Z,12.30
2018-03-20T10:00:35.780Z,12.40
2018-03-20T10:03:03.464Z,11.77
2018-03-20T10:05:31.024Z,11.40
2018-03-20T10:07:58.595Z,12.53
2018-03-20T10:10:27.125Z,12.03
2018-03-20T10:12:54.676Z,13.57
2018-03-20T10:15:22.969Z,12.93
2018-03-20T10:17:50.517Z,12.97
2018-03-20T10:20:20.973Z,13.40
2018-03-20T10:22:48.480Z,13.00
2018-03-20T10:25:16.837Z,13.93
2018-03-20T10:27:44.344Z,13.30
2018-03-20T10:30:11.911Z,13.53
2018-03-20T10:32:39.470Z,12.83
2018-03-20T10:35:07.005Z,13.30
2018-03-20T10:37:34.541Z,12.73
2018-03-20T10:40:02.064Z,14.20
2018-03-20T10:42:30.574Z,12.33
2018-03-20T10:44:58.118Z,12.53
2018-03-20T10:47:25.692Z,13.10
2018-03-20T10:49:53.310Z,14.20
2018-03-20T10:52:20.898Z,13.27
2018-03-20T10:54:48.499Z,12.47
2018-03-20T10:57:16.781Z,13.30
2018-03-20T10:59:46.015Z,13.33
2018-03-20T11:02:19.397Z,14.43
2018-03-20T11:04:47.048Z,12.90
2018-03-20T11:07:14.603Z,13.83
2018-03-20T11:09:43.234Z,13.67
2018-03-20T11:12:12.706Z,13.20
2018-03-20T11:14:41.860Z,14.43
2018-03-20T11:17:09.375Z,14.00
2018-03-20T11:19:40.467Z,14.10
2018-03-20T11:22:09.153Z,14.13
2018-03-20T11:24:37.008Z,13.40
2018-03-20T11:27:06.163Z,13.23
2018-03-20T11:29:33.749Z,13.17
2018-03-20T11:32:02.576Z,13.47
2018-03-20T11:34:30.187Z,13.37
2018-03-20T11:36:58.766Z,12.57
2018-03-20T11:39:26.474Z,13.67
2018-03-20T11:41:53.984Z,13.70
2018-03-20T11:44:21.617Z,12.90
2018-03-20T11:46:54.146Z,12.00
2018-03-20T11:49:21.700Z,12.40
2018-03-20T11:51:52.220Z,12.23
2018-03-20T11:54:19.793Z,13.17
2018-03-20T11:56:47.347Z,13.20
2018-03-20T11:59:14.955Z,13.13
2018-03-20T12:01:43.486Z,12.93
2018-03-20T12:04:12.192Z,12.23
2018-03-20T12:06:39.766Z,12.33
2018-03-20T12:09:21.370Z,12.60
2018-03-20T12:11:48.998Z,11.90
2018-03-20T12:14:16.635Z,12.20
2018-03-20T12:16:44.292Z,11.67
2018-03-20T12:19:12.731Z,12.17
2018-03-20T12:21:40.337Z,12.37
2018-03-20T12:24:09.275Z,12.53
2018-03-20T12:26:37.718Z,13.10
2018-03-20T12:29:07.023Z,13.07
2018-03-20T12:31:34.574Z,13.33
2018-03-20T12:34:02.200Z,12.57
2018-03-20T12:36:29.842Z,12.83
2018-03-20T12:38:57.389Z,12.93
2018-03-20T12:41:27.616Z,13.10
2018-03-20T12:43:55.734Z,12.80
2018-03-20T12:46:23.383Z,13.00
2018-03-20T12:48:51.861Z,13.83
2018-03-20T12:51:20.106Z,13.50
2018-03-20T12:53:47.624Z,13.60
2018-03-20T12:56:16.118Z,14.03
2018-03-20T12:58:43.750Z,13.37
2018-03-20T13:01:12.221Z,12.93
2018-03-20T13:03:40.514Z,14.07
2018-03-20T13:06:09.037Z,12.90
2018-03-20T13:08:36.663Z,13.30
2018-03-20T13:11:04.347Z,12.43
2018-03-20T13:13:31.942Z,13.37
2018-03-20T13:15:59.550Z,13.10
2018-03-20T13:18:27.105Z,13.60
2018-03-20T13:20:54.660Z,13.63
2018-03-20T13:23:22.286Z,13.00
2018-03-20T13:25:50.828Z,14.17
2018-03-20T13:28:19.355Z,13.67
2018-03-20T13:30:46.973Z,14.93
2018-03-20T13:33:14.602Z,15.80
2018-03-20T13:35:42.474Z,15.83
2018-03-20T13:38:10.112Z,16.07
2018-03-20T13:40:37.638Z,13.83
2018-03-20T13:43:05.320Z,14.43
2018-03-20T13:45:32.999Z,14.27
2018-03-20T13:48:00.563Z,14.30
2018-03-20T13:50:30.164Z,15.27
2018-03-20T13:52:59.445Z,16.23
2018-03-20T13:55:26.981Z,13.70
2018-03-20T13:57:56.143Z,15.10
2018-03-20T14:00:23.792Z,14.80
2018-03-20T14:02:51.340Z,15.70
2018-03-20T14:05:19.692Z,15.70
2018-03-20T14:07:47.313Z,15.47
2018-03-20T14:10:17.194Z,14.57
2018-03-20T14:12:45.612Z,14.07
2018-03-20T14:15:14.681Z,15.30
2018-03-20T14:17:43.126Z,16.00
2018-03-20T14:20:10.668Z,15.43
2018-03-20T14:22:39.010Z,14.37
2018-03-20T14:25:06.556Z,14.07
2018-03-20T14:27:34.135Z,14.47
2018-03-20T14:30:01.647Z,15.20
2018-03-20T14:32:29.305Z,15.13
2018-03-20T14:34:58.859Z,15.53
2018-03-20T14:37:27.197Z,14.83
2018-03-20T14:39:55.570Z,15.17
2018-03-20T14:42:23.166Z,16.50
2018-03-20T14:45:00.252Z,16.70
2018-03-20T14:47:27.920Z,16.30
2018-03-20T14:49:55.493Z,14.73
2018-03-20T14:52:23.991Z,14.30
2018-03-20T14:54:51.558Z,13.63
2018-03-20T14:57:19.251Z,13.90
2018-03-20T14:59:47.768Z,14.57
2018-03-20T15:02:16.788Z,13.90
2018-03-20T15:04:45.511Z,13.60
2018-03-20T15:07:13.627Z,13.23
2018-03-20T15:09:41.919Z,13.53
2018-03-20T15:12:10.210Z,14.10
2018-03-20T15:14:38.689Z,14.00
2018-03-20T15:17:06.299Z,13.57
2018-03-20T15:19:34.794Z,14.83
2018-03-20T15:22:04.026Z,14.57
2018-03-20T15:24:31.642Z,15.37
2018-03-20T15:26:59.206Z,14.50
2018-03-20T15:29:27.716Z,13.73
2018-03-20T15:31:55.266Z,13.90
2018-03-20T15:34:22.809Z,13.73
2018-03-20T15:36:51.281Z,13.60
2018-03-20T15:39:18.938Z,14.70
2018-03-20T15:41:46.504Z,14.27
2018-03-20T15:44:14.780Z,16.00
2018-03-20T15:46:43.084Z,15.07
2018-03-20T15:49:10.646Z,14.73
2018-03-20T15:51:38.216Z,14.93
2018-03-20T15:54:05.793Z,14.53
2018-03-20T15:56:34.264Z,14.63
2018-03-20T15:59:01.885Z,15.13
2018-03-20T16:01:29.527Z,16.23
2018-03-20T16:03:57.064Z,16.00
2018-03-20T16:06:24.902Z,16.73
2018-03-20T16:08:53.182Z,15.87
2018-03-20T16:11:21.498Z,16.30
2018-03-20T16:13:50.994Z,14.90
2018-03-20T16:16:18.697Z,16.37
2018-03-20T16:18:46.253Z,17.97
2018-03-20T16:21:13.797Z,15.90
2018-03-20T16:23:41.412Z,15.00
2018-03-20T16:26:09.019Z,16.03
2018-03-20T16:28:36.573Z,15.23
2018-03-20T16:31:04.956Z,18.17
2018-03-20T16:33:33.432Z,20.63
2018-03-20T16:36:01.068Z,19.80
2018-03-20T16:38:29.523Z,24.37
2018-03-20T16:40:58.097Z,26.17
2018-03-20T16:43:25.646Z,16.33
2018-03-20T16:45:54.185Z,14.17
2018-03-20T16:48:21.679Z,14.50
2018-03-20T16:50:50.279Z,16.27
2018-03-20T16:53:17.806Z,14.93
2018-03-20T16:56:03.251Z,15.97
2018-03-20T16:58:31.638Z,18.73
2018-03-20T17:03:41.967Z,19.57
2018-03-20T17:06:10.284Z,17.33
2018-03-20T17:08:37.804Z,17.47
2018-03-20T17:11:07.084Z,17.33
2018-03-20T17:13:34.680Z,15.43
2018-03-20T17:16:02.255Z,16.87
2018-03-20T17:18:30.544Z,18.03
2018-03-20T17:20:58.132Z,19.67
2018-03-20T17:23:25.747Z,20.57
2018-03-20T17:25:53.290Z,18.23
2018-03-20T17:28:20.896Z,17.80
2018-03-20T17:30:49.219Z,18.30
2018-03-20T17:33:16.818Z,18.60
2018-03-20T17:35:45.187Z,16.07
2018-03-20T17:38:12.735Z,21.13
2018-03-20T17:40:41.150Z,19.40
2018-03-20T17:43:08.773Z,18.13
2018-03-20T17:45:36.327Z,30.07
2018-03-20T17:48:03.962Z,19.17
2018-03-20T17:50:31.634Z,17.47
2018-03-20T17:53:01.174Z,17.97
2018-03-20T17:55:28.801Z,14.03
2018-03-20T17:57:57.298Z,16.77
2018-03-20T18:00:27.553Z,17.47
2018-03-20T18:02:55.182Z,18.80
2018-03-20T18:05:22.734Z,19.20
2018-03-20T18:07:50.451Z,19.23
2018-03-20T18:10:18.894Z,18.30
2018-03-20T18:12:46.504Z,19.60
2018-03-20T18:15:14.141Z,18.30
2018-03-20T18:17:42.446Z,19.20
2018-03-20T18:20:10.897Z,20.57
2018-03-20T18:22:40.151Z,21.57
2018-03-20T18:25:07.718Z,19.20
2018-03-20T18:27:35.322Z,17.77
2018-03-20T18:30:02.931Z,20.43
2018-03-20T18:32:30.468Z,26.43
2018-03-20T18:34:58.763Z,21.17
2018-03-20T18:37:26.555Z,26.57
2018-03-20T18:39:56.003Z,23.67
2018-03-20T18:42:24.487Z,21.77
2018-03-20T18:44:54.089Z,23.77
2018-03-20T18:47:21.618Z,23.63
2018-03-20T18:49:49.923Z,24.10
2018-03-20T18:52:17.469Z,23.47
2018-03-20T18:54:45.054Z,25.37
2018-03-20T18:57:13.585Z,24.93
2018-03-20T18:59:41.876Z,27.00
2018-03-20T19:02:09.455Z,27.60
2018-03-20T19:04:37.117Z,28.67
2018-03-20T19:07:04.665Z,28.97
2018-03-20T19:09:33.636Z,28.07
2018-03-20T19:12:01.250Z,28.87
2018-03-20T19:14:28.808Z,31.93
2018-03-20T19:16:56.450Z,33.63
2018-03-20T19:19:24.760Z,29.57
2018-03-20T19:21:52.313Z,30.40
2018-03-20T19:24:19.813Z,32.33
2018-03-20T19:26:47.744Z,28.70
2018-03-20T19:29:16.034Z,28.93
2018-03-20T19:31:43.572Z,29.47
2018-03-20T19:34:11.186Z,30.97
2018-03-20T19:36:38.781Z,31.47
2018-03-20T19:39:07.403Z,30.33
2018-03-20T19:41:35.817Z,31.07
2018-03-20T19:44:03.351Z,34.40
2018-03-20T19:46:30.916Z,32.50
2018-03-20T19:48:59.207Z,38.57
2018-03-20T19:51:26.825Z,32.23
2018-03-20T19:53:54.399Z,37.57
2018-03-20T19:56:24.131Z,33.83
2018-03-20T19:58:52.609Z,30.87
2018-03-20T20:01:20.154Z,31.63
2018-03-20T20:03:47.679Z,32.30
2018-03-20T20:06:16.198Z,34.13
2018-03-20T20:08:44.721Z,31.47
2018-03-20T20:11:12.239Z,31.77
2018-03-20T20:13:39.828Z,30.03
2018-03-20T20:16:07.522Z,32.10
2018-03-20T20:18:35.822Z,32.80
2018-03-20T20:21:03.426Z,29.37
2018-03-20T20:23:31.904Z,27.63
2018-03-20T20:25:59.641Z,32.63
2018-03-20T20:28:27.241Z,29.53
2018-03-20T20:30:56.541Z,28.27
2018-03-20T20:33:24.193Z,25.83
2018-03-20T20:35:53.191Z,28.30
2018-03-20T20:38:20.739Z,28.87
2018-03-20T20:40:49.198Z,27.93
2018-03-20T20:43:17.460Z,27.37
2018-03-20T20:45:45.504Z,27.80
2018-03-20T20:48:17.878Z,30.23
2018-03-20T20:53:57.715Z,30.93
2018-03-20T20:56:25.383Z,29.93
2018-03-20T20:58:52.972Z,29.90
2018-03-20T21:01:21.176Z,27.87
2018-03-20T21:03:49.080Z,28.77
2018-03-20T21:06:17.164Z,31.63
2018-03-20T21:08:46.140Z,29.43
2018-03-20T21:11:17.867Z,31.50
2018-03-20T21:13:46.257Z,33.37
2018-03-20T21:16:15.078Z,33.70
2018-03-20T21:18:43.422Z,34.17
2018-03-20T21:21:13.028Z,33.70
2018-03-20T21:23:40.838Z,36.90
2018-03-20T21:26:10.163Z,36.73
2018-03-20T21:28:37.702Z,32.60
2018-03-20T21:31:07.501Z,31.63
2018-03-20T21:33:35.100Z,30.20
2018-03-20T21:36:02.613Z,30.77
2018-03-20T21:38:30.258Z,32.53
2018-03-20T21:40:57.823Z,32.37
2018-03-20T21:43:25.538Z,31.57
2018-03-20T21:45:55.952Z,32.83
2018-03-20T21:48:25.511Z,30.33
2018-03-20T21:50:53.506Z,30.27
2018-03-20T21:53:21.983Z,30.53
2018-03-20T21:55:50.403Z,30.50
2018-03-20T21:58:17.979Z,30.40
2018-03-20T22:00:47.549Z,32.93
2018-03-20T22:03:15.102Z,30.63
2018-03-20T22:05:45.614Z,31.77
2018-03-20T22:08:13.924Z,30.10
2018-03-20T22:10:41.482Z,31.13
2018-03-20T22:13:09.075Z,30.00
2018-03-20T22:15:37.474Z,29.63
2018-03-20T22:18:05.895Z,29.13
2018-03-20T22:20:34.175Z,27.77
2018-03-20T22:23:02.496Z,27.67
2018-03-20T22:25:30.073Z,28.17
2018-03-20T22:27:57.564Z,27.83
2018-03-20T22:30:25.942Z,28.27
2018-03-20T22:32:53.420Z,28.13
2018-03-20T22:35:21.008Z,27.17
2018-03-20T22:37:48.557Z,28.67
2018-03-20T22:40:17.811Z,24.47
2018-03-20T22:42:45.426Z,27.37
2018-03-20T22:45:13.708Z,28.00
2018-03-20T22:47:42.006Z,28.07
2018-03-20T22:50:10.476Z,27.10
2018-03-20T22:52:38.884Z,26.13
2018-03-20T22:55:06.406Z,28.33
2018-03-20T22:57:34.907Z,27.23
2018-03-20T23:00:03.241Z,26.73
2018-03-20T23:02:31.653Z,28.67
2018-03-20T23:05:00.124Z,28.53
2018-03-20T23:07:27.676Z,29.20
2018-03-20T23:09:55.220Z,28.37
2018-03-20T23:12:22.859Z,28.63
2018-03-20T23:14:51.143Z,28.87
2018-03-20T23:17:38.925Z,29.37
2018-03-20T23:20:06.447Z,28.77
2018-03-20T23:25:14.494Z,30.43
2018-03-20T23:27:42.046Z,29.37
2018-03-20T23:30:09.552Z,31.63
2018-03-20T23:32:37.108Z,30.63
2018-03-20T23:35:04.631Z,31.20
2018-03-20T23:37:32.171Z,29.93
2018-03-20T23:39:59.803Z,31.60
2018-03-20T23:42:27.322Z,31.30
2018-03-20T23:44:55.752Z,31.03
2018-03-20T23:47:24.220Z,31.77
2018-03-20T23:49:51.882Z,30.50
2018-03-20T23:52:19.390Z,31.27
2018-03-20T23:54:47.730Z,30.23
2018-03-20T23:57:15.245Z,30.03
2018-03-20T23:59:43.531Z,29.60
